createdAt,value
2022-08-08T00:00:51.402Z,85
2022-08-08T00:01:00.730Z,83
2022-08-08T00:01:09.328Z,84
2022-08-08T00:02:33.689Z,79
2022-08-08T00:03:28.549Z,83
2022-08-08T00:04:01.913Z,85
2022-08-08T00:05:01.880Z,82
2022-08-08T00:06:04.491Z,82
2022-08-08T00:07:13.128Z,82
2022-08-08T00:08:04.455Z,84
2022-08-08T00:09:02.224Z,83
2022-08-08T00:10:02.190Z,83
2022-08-08T00:11:13.014Z,83
2022-08-08T00:12:10.171Z,81
2022-08-08T00:13:03.680Z,83
2022-08-08T00:14:57.518Z,82
2022-08-08T00:15:05.568Z,82
2022-08-08T00:16:02.073Z,82
2022-08-08T00:17:01.987Z,82
2022-08-08T00:18:04.999Z,80
2022-08-08T00:19:02.135Z,82
2022-08-08T00:20:02.356Z,82
2022-08-08T00:21:07.816Z,82
2022-08-08T00:22:02.332Z,83
2022-08-08T00:23:07.922Z,82
2022-08-08T00:24:03.482Z,83
2022-08-08T00:25:02.517Z,84
2022-08-08T00:26:02.786Z,84
2022-08-08T00:27:01.675Z,83
2022-08-08T00:28:02.535Z,79
2022-08-08T00:29:01.783Z,80
2022-08-08T00:30:01.643Z,82
2022-08-08T00:32:33.373Z,83
2022-08-08T00:32:34.858Z,84
2022-08-08T00:33:02.146Z,80
2022-08-08T00:34:19.776Z,82
2022-08-08T00:35:04.614Z,82
2022-08-08T00:36:03.529Z,81
2022-08-08T00:37:16.388Z,82
2022-08-08T00:38:03.269Z,79
2022-08-08T00:39:03.249Z,83
2022-08-08T00:41:14.225Z,84
2022-08-08T00:41:14.587Z,83
2022-08-08T00:42:19.778Z,82
2022-08-08T00:43:20.255Z,80
2022-08-08T00:44:02.402Z,79
2022-08-08T00:45:03.495Z,81
2022-08-08T00:46:02.162Z,79
2022-08-08T00:47:14.040Z,80
2022-08-08T00:48:29.608Z,78
2022-08-08T00:49:02.534Z,86
2022-08-08T00:50:02.342Z,84
2022-08-08T00:51:02.551Z,83
2022-08-08T00:52:03.810Z,82
2022-08-08T00:53:06.995Z,78
2022-08-08T00:54:16.237Z,83
2022-08-08T00:55:03.425Z,78
2022-08-08T00:56:02.416Z,81
2022-08-08T00:57:03.686Z,81
2022-08-08T00:58:02.576Z,84
2022-08-08T00:59:02.799Z,83
2022-08-08T01:00:06.780Z,79
2022-08-08T01:01:02.210Z,79
2022-08-08T01:02:02.534Z,86
2022-08-08T01:04:04.799Z,84
2022-08-08T01:04:05.506Z,87
2022-08-08T01:05:04.169Z,85
2022-08-08T01:06:02.765Z,81
2022-08-08T01:07:06.288Z,87
2022-08-08T01:08:02.114Z,84
2022-08-08T01:09:40.829Z,85
2022-08-08T01:10:06.592Z,82
2022-08-08T01:11:08.326Z,86
2022-08-08T01:12:03.438Z,84
2022-08-08T01:13:02.636Z,85
2022-08-08T01:14:02.535Z,81
2022-08-08T01:15:07.102Z,85
2022-08-08T01:16:02.041Z,84
2022-08-08T01:17:04.897Z,81
2022-08-08T01:18:02.839Z,84
2022-08-08T01:19:11.788Z,82
2022-08-08T01:20:03.934Z,85
2022-08-08T01:21:02.504Z,84
2022-08-08T01:22:15.692Z,81
2022-08-08T01:23:03.303Z,85
2022-08-08T01:24:16.827Z,85
2022-08-08T01:25:05.363Z,83
2022-08-08T01:26:05.947Z,87
2022-08-08T01:27:07.272Z,84
2022-08-08T01:28:02.359Z,84
2022-08-08T01:29:05.944Z,83
2022-08-08T01:30:03.863Z,84
2022-08-08T01:31:06.144Z,84
2022-08-08T01:32:17.443Z,84
2022-08-08T01:33:24.170Z,84
2022-08-08T01:34:01.859Z,84
2022-08-08T01:35:11.732Z,83
2022-08-08T01:36:04.695Z,82
2022-08-08T01:37:02.150Z,83
2022-08-08T01:38:03.428Z,83
2022-08-08T01:39:01.765Z,81
2022-08-08T01:40:03.137Z,82
2022-08-08T01:41:02.799Z,85
2022-08-08T01:42:02.357Z,83
2022-08-08T01:43:01.806Z,82
2022-08-08T01:44:01.785Z,83
2022-08-08T01:45:01.642Z,82
2022-08-08T01:46:03.130Z,84
2022-08-08T01:48:27.864Z,85
2022-08-08T01:48:31.750Z,84
2022-08-08T01:49:01.816Z,87
2022-08-08T01:50:01.794Z,85
2022-08-08T01:51:01.774Z,85
2022-08-08T01:54:04.106Z,85
2022-08-08T01:56:04.438Z,84
2022-08-08T01:56:19.345Z,86
2022-08-08T01:56:30.153Z,82
2022-08-08T01:56:31.778Z,85
2022-08-08T01:57:01.982Z,86
2022-08-08T01:58:13.931Z,83
2022-08-08T01:59:03.241Z,85
2022-08-08T02:00:03.985Z,85
2022-08-08T02:01:02.139Z,85
2022-08-08T02:02:05.685Z,86
2022-08-08T02:03:07.565Z,82
2022-08-08T02:04:02.101Z,83
2022-08-08T02:05:02.820Z,87
2022-08-08T02:06:02.466Z,87
2022-08-08T02:07:04.558Z,84
2022-08-08T02:08:04.885Z,85
2022-08-08T02:09:17.519Z,87
2022-08-08T02:10:12.302Z,85
2022-08-08T02:11:04.723Z,86
2022-08-08T02:12:04.288Z,86
2022-08-08T02:13:02.148Z,85
2022-08-08T02:14:03.488Z,85
2022-08-08T02:15:03.498Z,86
2022-08-08T02:16:04.041Z,82
2022-08-08T02:17:02.061Z,87
2022-08-08T02:18:03.283Z,86
2022-08-08T02:19:42.011Z,85
2022-08-08T02:20:16.018Z,87
2022-08-08T02:21:12.941Z,87
2022-08-08T02:22:02.731Z,86
2022-08-08T02:23:04.536Z,85
2022-08-08T02:24:04.083Z,87
2022-08-08T02:25:11.629Z,85
2022-08-08T02:26:02.298Z,89
2022-08-08T02:27:01.591Z,88
2022-08-08T02:28:02.247Z,85
2022-08-08T02:29:02.075Z,85
2022-08-08T02:30:02.003Z,85
2022-08-08T02:31:07.203Z,86
2022-08-08T02:32:05.527Z,86
2022-08-08T02:33:03.671Z,87
2022-08-08T02:34:09.898Z,86
2022-08-08T02:35:11.943Z,85
2022-08-08T02:36:05.781Z,84
2022-08-08T02:37:02.074Z,86
2022-08-08T02:38:02.041Z,85
2022-08-08T02:39:42.212Z,86
2022-08-08T02:40:01.873Z,84
2022-08-08T02:41:18.082Z,86
2022-08-08T02:42:08.048Z,86
2022-08-08T02:44:57.646Z,84
2022-08-08T02:44:57.694Z,85
2022-08-08T02:45:04.173Z,85
2022-08-08T02:46:02.300Z,79
2022-08-08T02:47:02.774Z,87
2022-08-08T02:48:02.388Z,87
2022-08-08T02:49:02.656Z,87
2022-08-08T02:50:02.561Z,85
2022-08-08T02:51:03.090Z,88
2022-08-08T02:52:35.424Z,87
2022-08-08T02:53:01.597Z,87
2022-08-08T02:54:02.208Z,83
2022-08-08T02:55:02.699Z,88
2022-08-08T02:56:02.359Z,87
2022-08-08T02:57:05.316Z,86
2022-08-08T02:58:03.282Z,86
2022-08-08T02:59:17.165Z,85
2022-08-08T03:00:31.416Z,85
2022-08-08T03:01:02.395Z,85
2022-08-08T03:02:02.715Z,85
2022-08-08T03:03:02.584Z,85
2022-08-08T03:05:10.613Z,84
2022-08-08T03:05:11.271Z,84
2022-08-08T03:06:02.162Z,85
2022-08-08T03:07:07.502Z,81
2022-08-08T03:08:03.165Z,88
2022-08-08T03:09:01.984Z,89
2022-08-08T03:10:04.485Z,88
2022-08-08T03:11:05.360Z,89
2022-08-08T03:12:08.086Z,85
2022-08-08T03:15:55.790Z,89
2022-08-08T03:16:05.062Z,88
2022-08-08T03:16:05.098Z,89
2022-08-08T03:17:02.109Z,87
2022-08-08T03:18:07.225Z,87
2022-08-08T03:19:02.351Z,85
2022-08-08T03:20:04.266Z,87
2022-08-08T03:21:15.557Z,86
2022-08-08T03:22:02.908Z,86
2022-08-08T03:23:05.231Z,85
2022-08-08T03:24:02.486Z,88
2022-08-08T03:25:02.617Z,88
2022-08-08T03:26:03.756Z,88
2022-08-08T03:27:02.539Z,87
2022-08-08T03:28:02.886Z,91
2022-08-08T03:29:03.809Z,88
2022-08-08T03:30:01.597Z,88
2022-08-08T03:31:25.898Z,88
2022-08-08T03:32:07.374Z,84
2022-08-08T03:33:54.286Z,87
2022-08-08T03:34:04.548Z,87
2022-08-08T03:35:04.200Z,87
2022-08-08T03:36:03.720Z,86
2022-08-08T03:38:00.299Z,86
2022-08-08T03:39:07.822Z,85
2022-08-08T03:39:15.965Z,86
2022-08-08T03:40:04.150Z,86
2022-08-08T03:41:43.083Z,86
2022-08-08T03:42:28.860Z,87
2022-08-08T03:43:20.392Z,87
2022-08-08T03:44:03.271Z,87
2022-08-08T03:46:07.579Z,88
2022-08-08T03:46:09.144Z,87
2022-08-08T03:47:20.850Z,86
2022-08-08T03:48:02.108Z,87
2022-08-08T03:50:02.053Z,85
2022-08-08T03:50:02.771Z,86
2022-08-08T03:51:01.646Z,86
2022-08-08T03:52:03.390Z,85
2022-08-08T03:53:01.718Z,85
2022-08-08T03:54:03.250Z,85
2022-08-08T03:55:57.038Z,85
2022-08-08T03:56:09.904Z,86
2022-08-08T03:58:37.943Z,84
2022-08-08T03:58:38.216Z,84
2022-08-08T03:59:02.410Z,83
2022-08-08T04:00:11.216Z,84
2022-08-08T04:01:25.859Z,83
2022-08-08T04:02:36.743Z,84
2022-08-08T04:03:04.340Z,83
2022-08-08T04:04:02.709Z,84
2022-08-08T04:05:01.976Z,84
2022-08-08T04:06:03.359Z,84
2022-08-08T04:07:03.601Z,85
2022-08-08T04:08:02.518Z,85
2022-08-08T04:09:11.617Z,84
2022-08-08T04:10:06.154Z,81
2022-08-08T04:11:02.018Z,85
2022-08-08T04:12:03.053Z,86
2022-08-08T04:13:18.759Z,85
2022-08-08T04:14:35.052Z,87
2022-08-08T04:15:03.405Z,86
2022-08-08T04:16:05.839Z,91
2022-08-08T04:17:04.623Z,91
2022-08-08T04:18:03.526Z,93
2022-08-08T04:19:02.399Z,91
2022-08-08T04:20:05.144Z,96
2022-08-08T04:21:06.685Z,93
2022-08-08T04:22:02.176Z,94
2022-08-08T04:23:07.035Z,96
2022-08-08T04:24:19.408Z,96
2022-08-08T04:25:02.657Z,95
2022-08-08T04:26:09.646Z,96
2022-08-08T04:27:10.408Z,98
2022-08-08T04:28:41.519Z,97
2022-08-08T04:29:04.373Z,100
2022-08-08T04:30:19.511Z,93
2022-08-08T04:31:06.174Z,98
2022-08-08T04:32:02.013Z,95
2022-08-08T04:33:02.003Z,96
2022-08-08T04:34:01.831Z,96
2022-08-08T04:35:01.739Z,96
2022-08-08T04:36:01.569Z,100
2022-08-08T04:37:04.334Z,99
2022-08-08T04:38:03.283Z,96
2022-08-08T04:40:08.059Z,98
2022-08-08T04:40:08.069Z,100
2022-08-08T04:41:02.004Z,97
2022-08-08T04:42:02.500Z,98
2022-08-08T04:43:02.523Z,99
2022-08-08T04:44:02.479Z,99
2022-08-08T04:45:02.090Z,97
2022-08-08T04:46:03.850Z,100
2022-08-08T04:47:01.693Z,100
2022-08-08T04:48:01.674Z,100
2022-08-08T04:49:06.634Z,100
2022-08-08T04:50:06.374Z,97
2022-08-08T04:51:01.856Z,99
2022-08-08T04:52:04.419Z,96
2022-08-08T04:53:52.745Z,98
2022-08-08T04:54:42.387Z,95
2022-08-08T04:55:02.413Z,93
2022-08-08T04:56:03.226Z,92
2022-08-08T04:57:02.099Z,91
2022-08-08T04:58:02.036Z,89
2022-08-08T04:59:02.018Z,89
2022-08-08T05:00:02.830Z,93
2022-08-08T05:01:11.607Z,91
2022-08-08T05:02:01.875Z,91
2022-08-08T05:03:05.877Z,89
2022-08-08T05:04:12.869Z,90
2022-08-08T05:05:01.713Z,90
2022-08-08T05:06:18.524Z,90
2022-08-08T05:07:01.974Z,88
2022-08-08T05:08:03.097Z,90
2022-08-08T05:09:05.807Z,88
2022-08-08T05:10:04.087Z,88
2022-08-08T05:11:02.041Z,89
2022-08-08T05:12:03.671Z,88
2022-08-08T05:13:03.129Z,86
2022-08-08T05:14:02.601Z,88
2022-08-08T05:15:05.501Z,86
2022-08-08T05:17:01.304Z,89
2022-08-08T05:17:10.732Z,89
2022-08-08T05:18:02.273Z,88
2022-08-08T05:19:05.470Z,91
2022-08-08T05:20:15.081Z,93
2022-08-08T05:21:06.240Z,93
2022-08-08T05:22:02.408Z,94
2022-08-08T05:23:02.340Z,94
2022-08-08T05:24:10.588Z,96
2022-08-08T05:25:01.569Z,97
2022-08-08T05:26:01.799Z,97
2022-08-08T05:27:01.615Z,99
2022-08-08T05:28:01.927Z,99
2022-08-08T05:29:06.469Z,97
2022-08-08T05:30:03.908Z,95
2022-08-08T05:32:06.035Z,94
2022-08-08T05:32:07.596Z,93
2022-08-08T05:33:03.834Z,92
2022-08-08T05:34:02.000Z,90
2022-08-08T05:35:05.801Z,88
2022-08-08T05:36:02.361Z,88
2022-08-08T05:37:16.155Z,90
2022-08-08T05:38:02.398Z,89
2022-08-08T05:39:02.093Z,89
2022-08-08T05:40:02.017Z,89
2022-08-08T05:41:01.976Z,92
2022-08-08T05:42:03.124Z,90
2022-08-08T05:43:02.044Z,91
2022-08-08T05:44:04.843Z,93
2022-08-08T05:45:31.517Z,92
2022-08-08T05:46:08.543Z,90
2022-08-08T05:47:04.812Z,90
2022-08-08T05:48:10.067Z,91
2022-08-08T05:49:02.066Z,90
2022-08-08T05:50:04.574Z,90
2022-08-08T05:51:16.146Z,91
2022-08-08T05:52:01.977Z,91
2022-08-08T05:54:26.461Z,90
2022-08-08T05:54:43.126Z,92
2022-08-08T05:55:09.754Z,91
2022-08-08T05:56:14.837Z,91
2022-08-08T05:57:06.180Z,91
2022-08-08T05:58:17.511Z,89
2022-08-08T05:59:04.277Z,89
2022-08-08T06:00:25.916Z,88
2022-08-08T06:01:05.261Z,91
2022-08-08T06:02:02.219Z,90
2022-08-08T06:03:02.371Z,90
2022-08-08T06:04:13.621Z,89
2022-08-08T06:05:24.438Z,90
2022-08-08T06:06:06.335Z,87
2022-08-08T06:07:02.958Z,90
2022-08-08T06:08:20.489Z,90
2022-08-08T06:10:02.222Z,92
2022-08-08T06:10:02.818Z,92
2022-08-08T06:11:02.487Z,93
2022-08-08T06:12:01.735Z,94
2022-08-08T06:13:01.839Z,92
2022-08-08T06:14:03.060Z,91
2022-08-08T06:15:03.907Z,93
2022-08-08T06:16:03.220Z,93
2022-08-08T06:17:03.285Z,92
2022-08-08T06:18:22.178Z,88
2022-08-08T06:19:04.202Z,90
2022-08-08T06:20:02.027Z,92
2022-08-08T06:21:32.972Z,90
2022-08-08T06:22:32.645Z,89
2022-08-08T06:23:02.648Z,88
2022-08-08T06:24:13.613Z,89
2022-08-08T06:25:03.083Z,87
2022-08-08T06:26:50.726Z,89
2022-08-08T06:27:02.684Z,86
2022-08-08T06:28:02.660Z,83
2022-08-08T06:29:02.706Z,83
2022-08-08T06:30:02.562Z,84
2022-08-08T06:31:02.067Z,85
2022-08-08T06:32:17.049Z,85
2022-08-08T06:33:02.627Z,86
2022-08-08T06:34:28.416Z,86
2022-08-08T06:36:09.905Z,85
2022-08-08T06:36:10.193Z,84
2022-08-08T06:37:25.422Z,85
2022-08-08T06:38:01.921Z,85
2022-08-08T06:39:07.156Z,83
2022-08-08T06:40:04.074Z,82
2022-08-08T06:41:02.428Z,82
2022-08-08T06:42:03.113Z,82
2022-08-08T06:43:01.978Z,82
2022-08-08T06:44:02.885Z,81
2022-08-08T06:45:05.792Z,80
2022-08-08T06:46:01.808Z,80
2022-08-08T06:47:02.655Z,78
2022-08-08T06:48:04.806Z,79
2022-08-08T06:49:02.395Z,79
2022-08-08T06:50:04.466Z,76
2022-08-08T06:51:08.585Z,75
2022-08-08T06:52:02.540Z,75
2022-08-08T06:53:17.494Z,75
2022-08-08T06:54:01.630Z,73
2022-08-08T06:55:05.780Z,72
2022-08-08T06:56:03.663Z,70
2022-08-08T06:57:04.708Z,72
2022-08-08T06:58:05.047Z,71
2022-08-08T06:59:12.242Z,69
2022-08-08T07:00:13.323Z,69
2022-08-08T07:02:18.499Z,69
2022-08-08T07:02:29.947Z,67
2022-08-08T07:03:05.136Z,69
2022-08-08T07:04:45.380Z,69
2022-08-08T07:05:04.926Z,68
2022-08-08T07:06:02.943Z,70
2022-08-08T07:07:12.389Z,68
2022-08-08T07:08:04.780Z,68
2022-08-08T07:09:01.740Z,67
2022-08-08T07:10:01.624Z,68
2022-08-08T07:11:02.585Z,65
2022-08-08T07:12:03.523Z,65
2022-08-08T07:13:02.284Z,66
2022-08-08T07:14:02.570Z,67
2022-08-08T07:15:04.783Z,69
2022-08-08T07:16:10.495Z,70
2022-08-08T07:17:02.832Z,68
2022-08-08T07:18:40.884Z,65
2022-08-08T07:19:03.212Z,68
2022-08-08T07:20:02.175Z,67
2022-08-08T07:21:04.696Z,69
2022-08-08T07:22:18.582Z,67
2022-08-08T07:23:02.261Z,65
2022-08-08T07:24:04.790Z,67
2022-08-08T07:25:01.712Z,67
2022-08-08T07:26:02.868Z,68
2022-08-08T07:27:11.228Z,68
2022-08-08T07:28:08.508Z,67
2022-08-08T07:29:08.403Z,66
2022-08-08T07:30:15.037Z,67
2022-08-08T07:31:02.247Z,67
2022-08-08T07:32:02.740Z,67
2022-08-08T07:33:01.667Z,65
2022-08-08T07:34:02.017Z,64
2022-08-08T07:35:03.210Z,64
2022-08-08T07:36:04.522Z,64
2022-08-08T07:37:13.469Z,65
2022-08-08T07:38:20.761Z,66
2022-08-08T07:39:03.959Z,62
2022-08-08T07:40:03.074Z,61
2022-08-08T07:41:05.232Z,63
2022-08-08T07:42:05.443Z,62
2022-08-08T07:43:08.975Z,62
2022-08-08T07:44:09.236Z,63
2022-08-08T07:45:02.372Z,63
2022-08-08T07:46:30.708Z,63
2022-08-08T07:47:01.809Z,64
2022-08-08T07:48:01.854Z,64
2022-08-08T07:49:01.721Z,64
2022-08-08T07:50:01.624Z,61
2022-08-08T07:51:04.614Z,61
2022-08-08T07:52:02.485Z,61
2022-08-08T07:53:02.553Z,61
2022-08-08T07:54:04.009Z,61
2022-08-08T07:55:02.202Z,61
2022-08-08T07:56:02.620Z,61
2022-08-08T07:57:02.497Z,60
2022-08-08T07:58:02.455Z,61
2022-08-08T07:59:03.339Z,61
2022-08-08T08:00:03.283Z,61
2022-08-08T08:01:03.317Z,60
2022-08-08T08:02:38.676Z,58
2022-08-08T08:03:02.400Z,59
2022-08-08T08:04:04.125Z,59
2022-08-08T08:05:04.033Z,56
2022-08-08T08:06:03.917Z,55
2022-08-08T08:07:01.875Z,57
2022-08-08T08:08:03.603Z,57
2022-08-08T08:09:05.381Z,59
2022-08-08T08:10:02.940Z,57
2022-08-08T08:11:01.897Z,58
2022-08-08T08:12:01.729Z,58
2022-08-08T08:13:01.836Z,60
2022-08-08T08:14:09.996Z,59
2022-08-08T08:15:04.913Z,57
2022-08-08T08:16:02.875Z,59
2022-08-08T08:17:01.852Z,59
2022-08-08T08:18:02.427Z,56
2022-08-08T08:19:02.310Z,55
2022-08-08T08:20:02.268Z,55
2022-08-08T08:21:02.327Z,56
2022-08-08T08:22:02.702Z,59
2022-08-08T08:23:01.908Z,58
2022-08-08T08:24:03.362Z,56
2022-08-08T08:25:08.736Z,56
2022-08-08T08:26:04.191Z,54
2022-08-08T08:27:03.906Z,56
2022-08-08T08:28:03.299Z,54
2022-08-08T08:29:06.336Z,54
2022-08-08T08:30:02.517Z,54
2022-08-08T08:31:02.644Z,54
2022-08-08T08:32:05.853Z,54
2022-08-08T08:33:01.677Z,52
2022-08-08T08:34:05.099Z,55
2022-08-08T08:35:03.967Z,53
2022-08-08T08:36:21.675Z,52
2022-08-08T08:37:08.696Z,51
2022-08-08T08:38:19.007Z,53
2022-08-08T08:39:17.225Z,54
2022-08-08T08:40:03.444Z,56
2022-08-08T08:41:13.126Z,53
2022-08-08T08:42:02.429Z,55
2022-08-08T08:43:02.230Z,54
2022-08-08T08:44:15.399Z,53
2022-08-08T08:45:23.188Z,53
2022-08-08T08:46:06.083Z,54
2022-08-08T08:47:02.644Z,53
2022-08-08T08:48:01.790Z,52
2022-08-08T08:49:02.294Z,53
2022-08-08T08:50:02.125Z,51
2022-08-08T08:51:03.628Z,50
2022-08-08T08:52:02.822Z,51
2022-08-08T08:53:55.721Z,52
2022-08-08T08:54:01.817Z,48
2022-08-08T08:55:02.334Z,49
2022-08-08T08:56:03.307Z,47
2022-08-08T08:57:01.933Z,50
2022-08-08T08:58:02.075Z,49
2022-08-08T08:59:01.902Z,51
2022-08-08T09:00:15.505Z,51
2022-08-08T09:01:13.237Z,48
2022-08-08T09:02:02.333Z,49
2022-08-08T09:03:03.388Z,47
2022-08-08T09:04:02.588Z,48
2022-08-08T09:05:02.479Z,48
2022-08-08T09:06:02.418Z,47
2022-08-08T09:07:01.693Z,48
2022-08-08T09:08:18.249Z,47
2022-08-08T09:09:01.895Z,47
2022-08-08T09:10:05.137Z,47
2022-08-08T09:11:03.012Z,47
2022-08-08T09:12:08.587Z,46
2022-08-08T09:13:02.410Z,45
2022-08-08T09:14:02.393Z,45
2022-08-08T09:15:02.356Z,46
2022-08-08T09:16:04.336Z,45
2022-08-08T09:17:15.968Z,46
2022-08-08T09:18:04.146Z,45
2022-08-08T09:19:03.165Z,45
2022-08-08T09:22:06.028Z,46
2022-08-08T09:22:06.293Z,45
2022-08-08T09:22:06.686Z,46
2022-08-08T09:23:02.209Z,45
2022-08-08T09:24:04.321Z,45
2022-08-08T09:25:04.178Z,46
2022-08-08T09:26:03.432Z,48
2022-08-08T09:27:03.084Z,47
2022-08-08T09:28:03.831Z,48
2022-08-08T09:29:09.571Z,49
2022-08-08T09:30:02.760Z,48
2022-08-08T09:31:13.208Z,48
2022-08-08T09:32:02.304Z,52
2022-08-08T09:34:30.675Z,49
2022-08-08T09:34:34.358Z,49
2022-08-08T09:35:08.655Z,49
2022-08-08T09:36:04.684Z,49
2022-08-08T09:38:01.247Z,50
2022-08-08T09:38:02.798Z,49
2022-08-08T09:39:15.731Z,51
2022-08-08T09:40:04.020Z,50
2022-08-08T09:41:01.683Z,51
2022-08-08T09:42:22.441Z,51
2022-08-08T09:43:23.946Z,53
2022-08-08T09:44:18.746Z,52
2022-08-08T09:45:15.929Z,52
2022-08-08T09:46:04.109Z,53
2022-08-08T09:48:02.783Z,52
2022-08-08T09:48:12.803Z,52
2022-08-08T09:49:49.734Z,53
2022-08-08T09:50:10.157Z,50
2022-08-08T09:51:05.712Z,50
2022-08-08T09:52:09.993Z,52
2022-08-08T09:53:33.000Z,53
2022-08-08T09:54:18.453Z,50
2022-08-08T09:55:05.275Z,50
2022-08-08T09:56:06.829Z,52
2022-08-08T09:57:02.063Z,51
2022-08-08T09:58:05.265Z,50
2022-08-08T09:59:43.049Z,50
2022-08-08T10:00:38.154Z,49
2022-08-08T10:01:15.623Z,48
2022-08-08T10:02:14.673Z,49
2022-08-08T10:03:04.099Z,49
2022-08-08T10:04:04.621Z,50
2022-08-08T10:05:15.614Z,49
2022-08-08T10:06:01.834Z,49
2022-08-08T10:07:07.898Z,50
2022-08-08T10:08:02.084Z,49
2022-08-08T10:09:03.093Z,47
2022-08-08T10:10:07.312Z,48
2022-08-08T10:12:28.495Z,49
2022-08-08T10:12:31.645Z,50
2022-08-08T10:13:15.065Z,48
2022-08-08T10:14:06.455Z,49
2022-08-08T10:15:18.679Z,48
2022-08-08T10:16:04.209Z,48
2022-08-08T10:17:38.558Z,48
2022-08-08T10:18:17.118Z,49
2022-08-08T10:19:03.176Z,48
2022-08-08T10:20:04.398Z,49
2022-08-08T10:21:04.016Z,50
2022-08-08T10:22:02.536Z,51
2022-08-08T10:23:02.661Z,49
2022-08-08T10:24:03.502Z,51
2022-08-08T10:25:01.889Z,50
2022-08-08T10:26:02.047Z,52
2022-08-08T10:27:02.363Z,53
2022-08-08T10:28:03.591Z,48
2022-08-08T10:29:02.233Z,48
2022-08-08T10:30:04.911Z,49
2022-08-08T10:31:02.495Z,48
2022-08-08T10:32:03.877Z,47
2022-08-08T10:33:01.984Z,48
2022-08-08T10:34:21.380Z,50
2022-08-08T10:35:03.863Z,48
2022-08-08T10:36:22.800Z,50
2022-08-08T10:37:05.778Z,49
2022-08-08T10:38:04.223Z,48
2022-08-08T10:39:07.854Z,47
2022-08-08T10:40:07.510Z,47
2022-08-08T10:41:03.218Z,47
2022-08-08T10:42:17.291Z,48
2022-08-08T10:43:02.160Z,49
2022-08-08T10:44:02.679Z,49
2022-08-08T10:45:09.106Z,47
2022-08-08T10:46:03.840Z,49
2022-08-08T10:47:02.033Z,49
2022-08-08T10:48:01.984Z,48
2022-08-08T10:49:03.079Z,48
2022-08-08T10:50:04.978Z,48
2022-08-08T10:51:02.306Z,48
2022-08-08T10:52:02.985Z,50
2022-08-08T10:53:07.448Z,53
2022-08-08T10:54:02.715Z,54
2022-08-08T10:55:06.837Z,51
2022-08-08T10:56:02.649Z,50
2022-08-08T10:57:04.438Z,50
2022-08-08T10:58:06.141Z,48
2022-08-08T10:59:02.509Z,47
2022-08-08T11:00:02.484Z,51
2022-08-08T11:01:08.596Z,49
2022-08-08T11:02:03.060Z,47
2022-08-08T11:03:03.294Z,48
2022-08-08T11:04:04.520Z,47
2022-08-08T11:05:15.293Z,48
2022-08-08T11:06:01.885Z,51
2022-08-08T11:07:02.543Z,50
2022-08-08T11:08:41.239Z,50
2022-08-08T11:09:02.192Z,46
2022-08-08T11:10:02.562Z,46
2022-08-08T11:11:32.927Z,45
2022-08-08T11:12:14.166Z,45
2022-08-08T11:13:30.304Z,45
2022-08-08T11:14:02.383Z,47
2022-08-08T11:15:02.405Z,45
2022-08-08T11:16:11.661Z,48
2022-08-08T11:17:02.293Z,47
2022-08-08T11:18:02.711Z,45
2022-08-08T11:19:01.577Z,44
2022-08-08T11:20:12.638Z,45
2022-08-08T11:21:19.427Z,44
2022-08-08T11:22:04.597Z,44
2022-08-08T11:23:06.173Z,43
2022-08-08T11:24:03.486Z,43
2022-08-08T11:25:14.927Z,43
2022-08-08T11:26:02.251Z,44
2022-08-08T11:27:20.286Z,45
2022-08-08T11:28:02.379Z,46
2022-08-08T11:29:04.704Z,45
2022-08-08T11:30:27.567Z,45
2022-08-08T11:31:04.695Z,45
2022-08-08T11:32:02.554Z,45
2022-08-08T11:33:05.483Z,46
2022-08-08T11:34:34.406Z,45
2022-08-08T11:35:42.431Z,45
2022-08-08T11:36:05.051Z,45
2022-08-08T11:37:15.712Z,45
2022-08-08T11:38:53.695Z,45
2022-08-08T11:39:03.166Z,46
2022-08-08T11:40:04.174Z,49
2022-08-08T11:41:03.701Z,45
2022-08-08T11:42:09.418Z,46
2022-08-08T11:43:02.254Z,45
2022-08-08T11:44:03.184Z,43
2022-08-08T11:45:02.200Z,45
2022-08-08T11:46:18.653Z,45
2022-08-08T11:47:01.640Z,45
2022-08-08T11:48:10.000Z,44
2022-08-08T11:49:05.330Z,48
2022-08-08T11:50:03.009Z,47
2022-08-08T11:51:50.148Z,49
2022-08-08T11:52:03.761Z,51
2022-08-08T11:53:06.983Z,49
2022-08-08T11:54:04.551Z,46
2022-08-08T11:55:06.249Z,50
2022-08-08T11:56:03.012Z,48
2022-08-08T11:57:05.087Z,52
2022-08-08T11:58:14.335Z,45
2022-08-08T11:59:02.685Z,44
2022-08-08T12:00:06.732Z,46
2022-08-08T12:01:16.117Z,46
2022-08-08T12:02:32.962Z,43
2022-08-08T12:03:03.071Z,43
2022-08-08T12:04:02.331Z,42
2022-08-08T12:05:02.645Z,44
2022-08-08T12:06:03.421Z,45
2022-08-08T12:07:04.295Z,44
2022-08-08T12:08:04.607Z,43
2022-08-08T12:09:02.741Z,44
2022-08-08T12:10:09.120Z,44
2022-08-08T12:11:03.469Z,43
2022-08-08T12:12:02.434Z,45
2022-08-08T12:13:03.303Z,44
2022-08-08T12:14:04.813Z,49
2022-08-08T12:15:02.411Z,49
2022-08-08T12:16:01.898Z,48
2022-08-08T12:17:02.550Z,48
2022-08-08T12:18:02.727Z,47
2022-08-08T12:19:06.332Z,52
2022-08-08T12:20:02.960Z,48
2022-08-08T12:21:01.780Z,48
2022-08-08T12:22:12.871Z,47
2022-08-08T12:23:03.662Z,48
2022-08-08T12:24:03.499Z,47
2022-08-08T12:25:03.110Z,45
2022-08-08T12:26:02.330Z,47
2022-08-08T12:27:03.642Z,54
2022-08-08T12:28:02.629Z,50
2022-08-08T12:29:02.500Z,46
2022-08-08T12:30:02.487Z,45
2022-08-08T12:31:02.465Z,46
2022-08-08T12:32:03.094Z,46
2022-08-08T12:33:08.050Z,47
2022-08-08T12:34:03.542Z,49
2022-08-08T12:35:17.440Z,49
2022-08-08T12:36:02.270Z,48
2022-08-08T12:37:02.374Z,48
2022-08-08T12:38:03.345Z,47
2022-08-08T12:39:07.173Z,52
2022-08-08T12:40:03.162Z,52
2022-08-08T12:41:33.514Z,49
2022-08-08T12:42:05.339Z,49
2022-08-08T12:43:04.134Z,55
2022-08-08T12:44:02.636Z,50
2022-08-08T12:45:01.620Z,47
2022-08-08T12:46:04.375Z,51
2022-08-08T12:47:08.497Z,46
2022-08-08T12:48:36.108Z,46
2022-08-08T12:49:45.402Z,46
2022-08-08T12:50:01.875Z,46
2022-08-08T12:51:03.089Z,46
2022-08-08T12:52:01.912Z,45
2022-08-08T12:53:02.234Z,48
2022-08-08T12:54:04.957Z,54
2022-08-08T12:55:13.558Z,49
2022-08-08T12:56:23.987Z,54
2022-08-08T12:57:02.896Z,50
2022-08-08T12:58:01.846Z,47
2022-08-08T12:59:01.654Z,48
2022-08-08T13:00:12.299Z,48
2022-08-08T13:01:06.556Z,48
2022-08-08T13:02:02.118Z,48
2022-08-08T13:03:02.948Z,47
2022-08-08T13:04:01.826Z,49
2022-08-08T13:05:15.731Z,47
2022-08-08T13:06:08.420Z,46
2022-08-08T13:07:03.370Z,50
2022-08-08T13:08:05.557Z,49
2022-08-08T13:09:03.121Z,53
2022-08-08T13:10:10.574Z,50
2022-08-08T13:11:02.887Z,52
2022-08-08T13:12:29.393Z,48
2022-08-08T13:13:08.344Z,47
2022-08-08T13:14:02.973Z,46
2022-08-08T13:15:02.014Z,46
2022-08-08T13:16:03.509Z,46
2022-08-08T13:17:02.328Z,45
2022-08-08T13:18:13.723Z,46
2022-08-08T13:19:14.063Z,45
2022-08-08T13:20:08.823Z,46
2022-08-08T13:21:02.133Z,46
2022-08-08T13:22:07.207Z,46
2022-08-08T13:23:41.481Z,45
2022-08-08T13:24:01.642Z,50
2022-08-08T13:25:02.818Z,49
2022-08-08T13:26:13.215Z,52
2022-08-08T13:27:03.486Z,46
2022-08-08T13:28:02.424Z,45
2022-08-08T13:29:06.577Z,45
2022-08-08T13:30:02.438Z,45
2022-08-08T13:31:04.533Z,44
2022-08-08T13:32:02.735Z,44
2022-08-08T13:33:02.547Z,43
2022-08-08T13:34:12.054Z,43
2022-08-08T13:35:04.009Z,42
2022-08-08T13:36:01.852Z,43
2022-08-08T13:37:02.539Z,44
2022-08-08T13:38:08.256Z,43
2022-08-08T13:39:02.500Z,43
2022-08-08T13:40:02.560Z,43
2022-08-08T13:41:02.370Z,44
2022-08-08T13:42:02.396Z,43
2022-08-08T13:43:04.268Z,44
2022-08-08T13:44:02.160Z,43
2022-08-08T13:45:04.810Z,44
2022-08-08T13:46:01.802Z,43
2022-08-08T13:47:02.092Z,44
2022-08-08T13:48:01.668Z,44
2022-08-08T13:50:34.548Z,44
2022-08-08T13:50:44.218Z,44
2022-08-08T13:51:41.604Z,45
2022-08-08T13:52:02.454Z,45
2022-08-08T13:53:26.179Z,44
2022-08-08T13:54:02.551Z,44
2022-08-08T13:55:02.546Z,44
2022-08-08T13:56:02.635Z,47
2022-08-08T13:57:02.083Z,45
2022-08-08T13:58:19.756Z,45
2022-08-08T13:59:02.171Z,44
2022-08-08T14:00:02.635Z,44
2022-08-08T14:01:05.085Z,44
2022-08-08T14:02:12.505Z,43
2022-08-08T14:03:46.770Z,44
2022-08-08T14:04:02.463Z,45
2022-08-08T14:05:21.935Z,45
2022-08-08T14:06:02.010Z,46
2022-08-08T14:07:01.996Z,46
2022-08-08T14:08:17.056Z,46
2022-08-08T14:09:29.920Z,45
2022-08-08T14:10:12.160Z,47
2022-08-08T14:11:02.270Z,45
2022-08-08T14:12:02.266Z,44
2022-08-08T14:13:03.927Z,46
2022-08-08T14:14:08.969Z,45
2022-08-08T14:15:03.455Z,45